sensor_id;sensor_type;location;lat;lon;timestamp;P1;durP1;ratioP1;P2;durP2;ratioP2
11847;SDS011;5983;49.966;8.052;2022-09-09T00:01:59;1.70;;;0.87;;
11847;SDS011;5983;49.966;8.052;2022-09-09T00:04:33;1.80;;;0.93;;
11847;SDS011;5983;49.966;8.052;2022-09-09T00:07:03;2.43;;;1.07;;
11847;SDS011;5983;49.966;8.052;2022-09-09T00:09:40;2.73;;;1.00;;
11847;SDS011;5983;49.966;8.052;2022-09-09T00:12:16;1.50;;;0.77;;
11847;SDS011;5983;49.966;8.052;2022-09-09T00:14:54;3.00;;;1.30;;
11847;SDS011;5983;49.966;8.052;2022-09-09T00:17:29;3.73;;;1.33;;
11847;SDS011;5983;49.966;8.052;2022-09-09T00:20:05;0.90;;;0.90;;
11847;SDS011;5983;49.966;8.052;2022-09-09T00:22:43;2.13;;;0.80;;
11847;SDS011;5983;49.966;8.052;2022-09-09T00:25:22;1.80;;;0.90;;
11847;SDS011;5983;49.966;8.052;2022-09-09T00:27:59;1.40;;;0.90;;
11847;SDS011;5983;49.966;8.052;2022-09-09T00:30:29;1.10;;;0.60;;
11847;SDS011;5983;49.966;8.052;2022-09-09T00:33:03;3.03;;;1.10;;
11847;SDS011;5983;49.966;8.052;2022-09-09T00:35:41;2.40;;;0.90;;
11847;SDS011;5983;49.966;8.052;2022-09-09T00:38:15;2.20;;;0.90;;
11847;SDS011;5983;49.966;8.052;2022-09-09T00:40:50;3.63;;;1.10;;
11847;SDS011;5983;49.966;8.052;2022-09-09T00:43:25;1.83;;;0.87;;
11847;SDS011;5983;49.966;8.052;2022-09-09T00:45:59;1.70;;;1.20;;
11847;SDS011;5983;49.966;8.052;2022-09-09T00:49:15;4.17;;;1.47;;
11847;SDS011;5983;49.966;8.052;2022-09-09T00:51:59;2.60;;;1.20;;
11847;SDS011;5983;49.966;8.052;2022-09-09T00:54:45;2.40;;;1.33;;
11847;SDS011;5983;49.966;8.052;2022-09-09T00:57:23;1.77;;;1.03;;
11847;SDS011;5983;49.966;8.052;2022-09-09T00:59:59;2.20;;;1.00;;
11847;SDS011;5983;49.966;8.052;2022-09-09T01:02:47;3.07;;;1.03;;
11847;SDS011;5983;49.966;8.052;2022-09-09T01:05:34;0.83;;;0.80;;
11847;SDS011;5983;49.966;8.052;2022-09-09T01:08:11;1.17;;;0.93;;
11847;SDS011;5983;49.966;8.052;2022-09-09T01:10:59;3.13;;;1.43;;
11847;SDS011;5983;49.966;8.052;2022-09-09T01:13:28;1.50;;;1.40;;
11847;SDS011;5983;49.966;8.052;2022-09-09T01:16:00;1.00;;;0.90;;
11847;SDS011;5983;49.966;8.052;2022-09-09T01:18:32;2.03;;;1.03;;
11847;SDS011;5983;49.966;8.052;2022-09-09T01:21:08;1.53;;;1.13;;
11847;SDS011;5983;49.966;8.052;2022-09-09T01:24:05;1.90;;;1.17;;
11847;SDS011;5983;49.966;8.052;2022-09-09T01:26:49;2.73;;;1.17;;
11847;SDS011;5983;49.966;8.052;2022-09-09T01:29:21;2.83;;;1.23;;
11847;SDS011;5983;49.966;8.052;2022-09-09T01:31:54;1.87;;;1.10;;
11847;SDS011;5983;49.966;8.052;2022-09-09T01:34:24;1.97;;;0.93;;
11847;SDS011;5983;49.966;8.052;2022-09-09T01:36:56;2.17;;;1.03;;
11847;SDS011;5983;49.966;8.052;2022-09-09T01:39:29;1.27;;;0.80;;
11847;SDS011;5983;49.966;8.052;2022-09-09T01:41:59;2.03;;;0.90;;
11847;SDS011;5983;49.966;8.052;2022-09-09T01:44:27;1.97;;;0.80;;
11847;SDS011;5983;49.966;8.052;2022-09-09T01:46:56;2.03;;;0.90;;
11847;SDS011;5983;49.966;8.052;2022-09-09T01:49:23;0.97;;;0.73;;
11847;SDS011;5983;49.966;8.052;2022-09-09T01:51:55;4.27;;;1.13;;
11847;SDS011;5983;49.966;8.052;2022-09-09T01:54:24;3.50;;;0.93;;
11847;SDS011;5983;49.966;8.052;2022-09-09T01:57:00;1.07;;;0.80;;
11847;SDS011;5983;49.966;8.052;2022-09-09T01:59:42;1.70;;;1.00;;
11847;SDS011;5983;49.966;8.052;2022-09-09T02:02:19;1.37;;;0.90;;
11847;SDS011;5983;49.966;8.052;2022-09-09T02:04:54;2.07;;;1.00;;
11847;SDS011;5983;49.966;8.052;2022-09-09T02:07:34;1.73;;;0.97;;
11847;SDS011;5983;49.966;8.052;2022-09-09T02:10:09;1.70;;;0.80;;
11847;SDS011;5983;49.966;8.052;2022-09-09T02:12:44;0.80;;;0.80;;
11847;SDS011;5983;49.966;8.052;2022-09-09T02:15:17;1.77;;;0.90;;
11847;SDS011;5983;49.966;8.052;2022-09-09T02:17:52;3.43;;;1.03;;
11847;SDS011;5983;49.966;8.052;2022-09-09T02:20:27;2.13;;;1.20;;
11847;SDS011;5983;49.966;8.052;2022-09-09T02:22:58;3.50;;;1.07;;
11847;SDS011;5983;49.966;8.052;2022-09-09T02:25:28;1.30;;;0.70;;
11847;SDS011;5983;49.966;8.052;2022-09-09T02:27:57;0.90;;;0.80;;
11847;SDS011;5983;49.966;8.052;2022-09-09T02:30:25;1.97;;;1.10;;
11847;SDS011;5983;49.966;8.052;2022-09-09T02:32:56;1.37;;;0.77;;
11847;SDS011;5983;49.966;8.052;2022-09-09T02:35:27;1.70;;;0.90;;
11847;SDS011;5983;49.966;8.052;2022-09-09T02:37:56;2.30;;;0.83;;
11847;SDS011;5983;49.966;8.052;2022-09-09T02:40:30;1.03;;;0.73;;
11847;SDS011;5983;49.966;8.052;2022-09-09T02:42:58;1.77;;;0.60;;
11847;SDS011;5983;49.966;8.052;2022-09-09T02:45:27;2.50;;;0.80;;
11847;SDS011;5983;49.966;8.052;2022-09-09T02:48:03;1.97;;;0.90;;
11847;SDS011;5983;49.966;8.052;2022-09-09T02:50:41;2.27;;;1.10;;
11847;SDS011;5983;49.966;8.052;2022-09-09T02:53:22;1.17;;;0.80;;
11847;SDS011;5983;49.966;8.052;2022-09-09T02:55:57;1.33;;;0.90;;
11847;SDS011;5983;49.966;8.052;2022-09-09T02:58:31;1.80;;;0.87;;
11847;SDS011;5983;49.966;8.052;2022-09-09T03:00:59;3.67;;;1.00;;
11847;SDS011;5983;49.966;8.052;2022-09-09T03:03:27;1.27;;;0.80;;
11847;SDS011;5983;49.966;8.052;2022-09-09T03:05:55;2.60;;;1.17;;
11847;SDS011;5983;49.966;8.052;2022-09-09T03:08:23;1.80;;;0.87;;
11847;SDS011;5983;49.966;8.052;2022-09-09T03:10:50;0.83;;;0.77;;
11847;SDS011;5983;49.966;8.052;2022-09-09T03:13:19;1.67;;;1.00;;
11847;SDS011;5983;49.966;8.052;2022-09-09T03:15:48;4.10;;;0.70;;
11847;SDS011;5983;49.966;8.052;2022-09-09T03:18:16;1.17;;;0.60;;
11847;SDS011;5983;49.966;8.052;2022-09-09T03:20:43;0.90;;;0.80;;
11847;SDS011;5983;49.966;8.052;2022-09-09T03:23:13;4.33;;;1.23;;
11847;SDS011;5983;49.966;8.052;2022-09-09T03:25:45;3.47;;;0.70;;
11847;SDS011;5983;49.966;8.052;2022-09-09T03:28:14;2.03;;;0.60;;
11847;SDS011;5983;49.966;8.052;2022-09-09T03:30:41;2.30;;;0.70;;
11847;SDS011;5983;49.966;8.052;2022-09-09T03:33:09;2.00;;;0.67;;
11847;SDS011;5983;49.966;8.052;2022-09-09T03:35:37;0.80;;;0.50;;
11847;SDS011;5983;49.966;8.052;2022-09-09T03:38:04;0.60;;;0.53;;
11847;SDS011;5983;49.966;8.052;2022-09-09T03:40:31;2.93;;;0.63;;
11847;SDS011;5983;49.966;8.052;2022-09-09T03:42:58;1.77;;;0.80;;
11847;SDS011;5983;49.966;8.052;2022-09-09T03:45:25;2.03;;;1.00;;
11847;SDS011;5983;49.966;8.052;2022-09-09T03:47:51;2.40;;;0.80;;
11847;SDS011;5983;49.966;8.052;2022-09-09T03:50:20;5.07;;;0.80;;
11847;SDS011;5983;49.966;8.052;2022-09-09T03:52:48;2.30;;;0.80;;
11847;SDS011;5983;49.966;8.052;2022-09-09T03:55:15;0.77;;;0.60;;
11847;SDS011;5983;49.966;8.052;2022-09-09T03:57:42;1.20;;;0.73;;
11847;SDS011;5983;49.966;8.052;2022-09-09T04:00:09;1.43;;;0.80;;
11847;SDS011;5983;49.966;8.052;2022-09-09T04:02:37;4.83;;;1.07;;
11847;SDS011;5983;49.966;8.052;2022-09-09T04:05:04;1.53;;;0.60;;
11847;SDS011;5983;49.966;8.052;2022-09-09T04:07:33;1.80;;;0.70;;
11847;SDS011;5983;49.966;8.052;2022-09-09T04:10:00;2.37;;;0.93;;
11847;SDS011;5983;49.966;8.052;2022-09-09T04:12:27;3.73;;;0.80;;
11847;SDS011;5983;49.966;8.052;2022-09-09T04:14:54;1.90;;;0.93;;
11847;SDS011;5983;49.966;8.052;2022-09-09T04:17:21;0.70;;;0.60;;
11847;SDS011;5983;49.966;8.052;2022-09-09T04:19:49;2.87;;;0.77;;
11847;SDS011;5983;49.966;8.052;2022-09-09T04:22:15;4.27;;;0.70;;
11847;SDS011;5983;49.966;8.052;2022-09-09T04:24:44;1.30;;;0.50;;
11847;SDS011;5983;49.966;8.052;2022-09-09T04:27:10;2.23;;;0.83;;
11847;SDS011;5983;49.966;8.052;2022-09-09T04:29:37;1.23;;;0.77;;
11847;SDS011;5983;49.966;8.052;2022-09-09T04:32:04;2.37;;;0.80;;
11847;SDS011;5983;49.966;8.052;2022-09-09T04:34:31;3.23;;;0.60;;
11847;SDS011;5983;49.966;8.052;2022-09-09T04:36:58;4.10;;;1.20;;
11847;SDS011;5983;49.966;8.052;2022-09-09T04:39:25;1.67;;;0.80;;
11847;SDS011;5983;49.966;8.052;2022-09-09T04:41:53;1.00;;;0.70;;
11847;SDS011;5983;49.966;8.052;2022-09-09T04:44:20;1.73;;;0.90;;
11847;SDS011;5983;49.966;8.052;2022-09-09T04:46:47;1.43;;;0.77;;
11847;SDS011;5983;49.966;8.052;2022-09-09T04:49:14;3.30;;;1.40;;
11847;SDS011;5983;49.966;8.052;2022-09-09T04:51:40;2.03;;;0.70;;
11847;SDS011;5983;49.966;8.052;2022-09-09T04:54:07;2.00;;;0.90;;
11847;SDS011;5983;49.966;8.052;2022-09-09T04:56:35;0.67;;;0.67;;
11847;SDS011;5983;49.966;8.052;2022-09-09T04:59:03;1.33;;;0.80;;
11847;SDS011;5983;49.966;8.052;2022-09-09T05:01:30;0.93;;;0.60;;
11847;SDS011;5983;49.966;8.052;2022-09-09T05:03:57;2.03;;;0.60;;
11847;SDS011;5983;49.966;8.052;2022-09-09T05:06:24;1.50;;;0.70;;
11847;SDS011;5983;49.966;8.052;2022-09-09T05:08:51;0.77;;;0.60;;
11847;SDS011;5983;49.966;8.052;2022-09-09T05:11:19;1.50;;;0.70;;
11847;SDS011;5983;49.966;8.052;2022-09-09T05:13:49;1.90;;;1.20;;
11847;SDS011;5983;49.966;8.052;2022-09-09T05:16:18;3.73;;;0.90;;
11847;SDS011;5983;49.966;8.052;2022-09-09T05:18:46;2.27;;;1.00;;
11847;SDS011;5983;49.966;8.052;2022-09-09T05:21:14;3.47;;;0.80;;
11847;SDS011;5983;49.966;8.052;2022-09-09T05:23:42;3.03;;;0.67;;
11847;SDS011;5983;49.966;8.052;2022-09-09T05:26:12;2.40;;;0.90;;
11847;SDS011;5983;49.966;8.052;2022-09-09T05:28:42;3.07;;;0.77;;
11847;SDS011;5983;49.966;8.052;2022-09-09T05:31:09;1.10;;;0.80;;
11847;SDS011;5983;49.966;8.052;2022-09-09T05:33:40;1.53;;;0.70;;
11847;SDS011;5983;49.966;8.052;2022-09-09T05:36:11;1.03;;;0.70;;
11847;SDS011;5983;49.966;8.052;2022-09-09T05:38:40;1.30;;;0.60;;
11847;SDS011;5983;49.966;8.052;2022-09-09T05:41:08;1.50;;;0.60;;
11847;SDS011;5983;49.966;8.052;2022-09-09T05:43:36;2.10;;;0.77;;
11847;SDS011;5983;49.966;8.052;2022-09-09T05:46:04;1.80;;;0.63;;
11847;SDS011;5983;49.966;8.052;2022-09-09T05:48:34;1.10;;;0.80;;
11847;SDS011;5983;49.966;8.052;2022-09-09T05:51:04;2.83;;;0.77;;
11847;SDS011;5983;49.966;8.052;2022-09-09T05:53:34;1.83;;;0.60;;
11847;SDS011;5983;49.966;8.052;2022-09-09T05:56:04;2.03;;;0.80;;
11847;SDS011;5983;49.966;8.052;2022-09-09T05:58:36;1.13;;;0.67;;
11847;SDS011;5983;49.966;8.052;2022-09-09T06:01:04;0.50;;;0.50;;
11847;SDS011;5983;49.966;8.052;2022-09-09T06:03:33;1.60;;;0.70;;
11847;SDS011;5983;49.966;8.052;2022-09-09T06:06:07;0.70;;;0.60;;
11847;SDS011;5983;49.966;8.052;2022-09-09T06:08:37;3.67;;;0.60;;
11847;SDS011;5983;49.966;8.052;2022-09-09T06:11:13;1.00;;;0.70;;
11847;SDS011;5983;49.966;8.052;2022-09-09T06:13:42;2.47;;;0.80;;
11847;SDS011;5983;49.966;8.052;2022-09-09T06:16:13;2.30;;;1.00;;
11847;SDS011;5983;49.966;8.052;2022-09-09T06:18:45;1.73;;;0.60;;
11847;SDS011;5983;49.966;8.052;2022-09-09T06:21:16;1.67;;;0.60;;
11847;SDS011;5983;49.966;8.052;2022-09-09T06:23:45;3.60;;;0.70;;
11847;SDS011;5983;49.966;8.052;2022-09-09T06:26:15;1.20;;;0.73;;
11847;SDS011;5983;49.966;8.052;2022-09-09T06:28:44;0.77;;;0.53;;
11847;SDS011;5983;49.966;8.052;2022-09-09T06:31:13;4.20;;;1.20;;
11847;SDS011;5983;49.966;8.052;2022-09-09T06:33:47;1.03;;;0.60;;
11847;SDS011;5983;49.966;8.052;2022-09-09T06:36:20;2.20;;;0.70;;
11847;SDS011;5983;49.966;8.052;2022-09-09T06:38:49;1.03;;;0.70;;
11847;SDS011;5983;49.966;8.052;2022-09-09T06:41:21;1.20;;;0.70;;
11847;SDS011;5983;49.966;8.052;2022-09-09T06:43:50;2.60;;;0.80;;
11847;SDS011;5983;49.966;8.052;2022-09-09T06:46:18;1.60;;;0.80;;
11847;SDS011;5983;49.966;8.052;2022-09-09T06:48:47;1.43;;;0.70;;
11847;SDS011;5983;49.966;8.052;2022-09-09T06:51:15;1.17;;;0.83;;
11847;SDS011;5983;49.966;8.052;2022-09-09T06:53:46;0.93;;;0.60;;
11847;SDS011;5983;49.966;8.052;2022-09-09T06:56:20;3.20;;;1.00;;
11847;SDS011;5983;49.966;8.052;2022-09-09T06:58:53;4.47;;;0.80;;
11847;SDS011;5983;49.966;8.052;2022-09-09T07:01:23;2.17;;;0.57;;
11847;SDS011;5983;49.966;8.052;2022-09-09T07:03:53;6.10;;;1.10;;
11847;SDS011;5983;49.966;8.052;2022-09-09T07:06:24;5.83;;;0.80;;
11847;SDS011;5983;49.966;8.052;2022-09-09T07:08:56;1.23;;;0.60;;
11847;SDS011;5983;49.966;8.052;2022-09-09T07:11:26;2.10;;;0.70;;
11847;SDS011;5983;49.966;8.052;2022-09-09T07:13:56;3.83;;;1.17;;
11847;SDS011;5983;49.966;8.052;2022-09-09T07:16:25;2.03;;;0.90;;
11847;SDS011;5983;49.966;8.052;2022-09-09T07:18:54;2.80;;;1.07;;
11847;SDS011;5983;49.966;8.052;2022-09-09T07:21:23;2.47;;;1.17;;
11847;SDS011;5983;49.966;8.052;2022-09-09T07:23:52;3.17;;;1.33;;
11847;SDS011;5983;49.966;8.052;2022-09-09T07:26:22;2.67;;;1.30;;
11847;SDS011;5983;49.966;8.052;2022-09-09T07:28:51;2.67;;;1.00;;
11847;SDS011;5983;49.966;8.052;2022-09-09T07:31:19;4.40;;;1.70;;
11847;SDS011;5983;49.966;8.052;2022-09-09T07:33:52;3.70;;;1.10;;
11847;SDS011;5983;49.966;8.052;2022-09-09T07:36:20;3.10;;;1.17;;
11847;SDS011;5983;49.966;8.052;2022-09-09T07:38:51;3.93;;;2.30;;
11847;SDS011;5983;49.966;8.052;2022-09-09T07:41:23;6.43;;;4.43;;
11847;SDS011;5983;49.966;8.052;2022-09-09T07:43:52;4.43;;;2.93;;
11847;SDS011;5983;49.966;8.052;2022-09-09T07:46:20;3.97;;;1.70;;
11847;SDS011;5983;49.966;8.052;2022-09-09T07:48:51;3.63;;;1.50;;
11847;SDS011;5983;49.966;8.052;2022-09-09T07:51:21;2.07;;;1.07;;
11847;SDS011;5983;49.966;8.052;2022-09-09T07:53:52;1.83;;;0.97;;
11847;SDS011;5983;49.966;8.052;2022-09-09T07:56:24;3.27;;;1.30;;
11847;SDS011;5983;49.966;8.052;2022-09-09T07:58:53;3.43;;;1.43;;
11847;SDS011;5983;49.966;8.052;2022-09-09T08:01:22;1.03;;;0.83;;
11847;SDS011;5983;49.966;8.052;2022-09-09T08:04:01;3.57;;;1.10;;
11847;SDS011;5983;49.966;8.052;2022-09-09T08:06:32;6.57;;;1.50;;
11847;SDS011;5983;49.966;8.052;2022-09-09T08:09:03;3.70;;;1.40;;
11847;SDS011;5983;49.966;8.052;2022-09-09T08:11:34;2.87;;;1.20;;
11847;SDS011;5983;49.966;8.052;2022-09-09T08:14:02;2.97;;;1.33;;
11847;SDS011;5983;49.966;8.052;2022-09-09T08:16:31;1.87;;;1.30;;
11847;SDS011;5983;49.966;8.052;2022-09-09T08:19:05;2.97;;;1.93;;
11847;SDS011;5983;49.966;8.052;2022-09-09T08:21:34;4.20;;;1.70;;
11847;SDS011;5983;49.966;8.052;2022-09-09T08:24:05;5.17;;;1.60;;
11847;SDS011;5983;49.966;8.052;2022-09-09T08:26:37;6.23;;;1.60;;
11847;SDS011;5983;49.966;8.052;2022-09-09T08:29:07;4.60;;;1.30;;
11847;SDS011;5983;49.966;8.052;2022-09-09T08:31:37;3.03;;;1.17;;
11847;SDS011;5983;49.966;8.052;2022-09-09T08:34:06;5.73;;;1.10;;
11847;SDS011;5983;49.966;8.052;2022-09-09T08:36:36;2.70;;;1.27;;
11847;SDS011;5983;49.966;8.052;2022-09-09T08:39:06;3.43;;;1.37;;
11847;SDS011;5983;49.966;8.052;2022-09-09T08:41:41;1.47;;;1.17;;
11847;SDS011;5983;49.966;8.052;2022-09-09T08:44:41;3.10;;;1.23;;
11847;SDS011;5983;49.966;8.052;2022-09-09T08:47:31;4.97;;;1.23;;
11847;SDS011;5983;49.966;8.052;2022-09-09T08:50:17;1.67;;;0.90;;
11847;SDS011;5983;49.966;8.052;2022-09-09T08:52:53;3.47;;;1.23;;
11847;SDS011;5983;49.966;8.052;2022-09-09T08:55:35;1.90;;;1.10;;
11847;SDS011;5983;49.966;8.052;2022-09-09T08:58:11;2.67;;;0.93;;
11847;SDS011;5983;49.966;8.052;2022-09-09T09:00:57;2.17;;;0.80;;
11847;SDS011;5983;49.966;8.052;2022-09-09T09:03:43;1.13;;;0.87;;
11847;SDS011;5983;49.966;8.052;2022-09-09T09:06:30;2.73;;;1.13;;
11847;SDS011;5983;49.966;8.052;2022-09-09T09:09:17;3.70;;;0.90;;
11847;SDS011;5983;49.966;8.052;2022-09-09T09:11:56;1.80;;;0.97;;
11847;SDS011;5983;49.966;8.052;2022-09-09T09:14:27;4.23;;;1.70;;
11847;SDS011;5983;49.966;8.052;2022-09-09T09:17:00;3.53;;;1.33;;
11847;SDS011;5983;49.966;8.052;2022-09-09T09:19:29;2.60;;;1.17;;
11847;SDS011;5983;49.966;8.052;2022-09-09T09:22:02;3.83;;;1.07;;
11847;SDS011;5983;49.966;8.052;2022-09-09T09:24:41;2.63;;;1.03;;
11847;SDS011;5983;49.966;8.052;2022-09-09T09:27:19;3.50;;;1.37;;
11847;SDS011;5983;49.966;8.052;2022-09-09T09:29:59;2.50;;;0.90;;
11847;SDS011;5983;49.966;8.052;2022-09-09T09:32:33;3.63;;;1.17;;
11847;SDS011;5983;49.966;8.052;2022-09-09T09:35:04;3.97;;;1.20;;
11847;SDS011;5983;49.966;8.052;2022-09-09T09:37:39;2.87;;;0.90;;
11847;SDS011;5983;49.966;8.052;2022-09-09T09:40:09;3.90;;;1.10;;
11847;SDS011;5983;49.966;8.052;2022-09-09T09:42:37;4.57;;;1.00;;
11847;SDS011;5983;49.966;8.052;2022-09-09T09:45:19;3.37;;;1.00;;
11847;SDS011;5983;49.966;8.052;2022-09-09T09:47:59;1.80;;;1.00;;
11847;SDS011;5983;49.966;8.052;2022-09-09T09:50:28;3.63;;;1.30;;
11847;SDS011;5983;49.966;8.052;2022-09-09T09:52:58;2.00;;;0.90;;
11847;SDS011;5983;49.966;8.052;2022-09-09T09:55:29;2.07;;;0.97;;
11847;SDS011;5983;49.966;8.052;2022-09-09T09:58:02;4.50;;;1.03;;
11847;SDS011;5983;49.966;8.052;2022-09-09T10:00:33;3.23;;;0.80;;
11847;SDS011;5983;49.966;8.052;2022-09-09T10:03:00;3.60;;;1.07;;
11847;SDS011;5983;49.966;8.052;2022-09-09T10:05:28;3.70;;;0.80;;
11847;SDS011;5983;49.966;8.052;2022-09-09T10:08:04;4.70;;;0.97;;
11847;SDS011;5983;49.966;8.052;2022-09-09T10:10:46;4.23;;;1.00;;
11847;SDS011;5983;49.966;8.052;2022-09-09T10:13:33;4.13;;;0.80;;
11847;SDS011;5983;49.966;8.052;2022-09-09T10:16:20;4.07;;;1.00;;
11847;SDS011;5983;49.966;8.052;2022-09-09T10:19:05;4.60;;;1.10;;
11847;SDS011;5983;49.966;8.052;2022-09-09T10:21:47;2.30;;;1.17;;
11847;SDS011;5983;49.966;8.052;2022-09-09T10:28:12;3.80;;;1.00;;
11847;SDS011;5983;49.966;8.052;2022-09-09T10:31:01;3.70;;;1.10;;
11847;SDS011;5983;49.966;8.052;2022-09-09T10:33:47;3.43;;;0.90;;
11847;SDS011;5983;49.966;8.052;2022-09-09T10:36:23;2.63;;;1.00;;
11847;SDS011;5983;49.966;8.052;2022-09-09T10:38:53;3.67;;;0.97;;
11847;SDS011;5983;49.966;8.052;2022-09-09T10:41:36;4.40;;;0.73;;
11847;SDS011;5983;49.966;8.052;2022-09-09T10:44:22;2.07;;;0.93;;
11847;SDS011;5983;49.966;8.052;2022-09-09T10:47:13;4.70;;;0.90;;
11847;SDS011;5983;49.966;8.052;2022-09-09T10:50:03;2.37;;;0.70;;
11847;SDS011;5983;49.966;8.052;2022-09-09T10:52:53;5.27;;;0.90;;
11847;SDS011;5983;49.966;8.052;2022-09-09T10:55:31;6.73;;;1.00;;
11847;SDS011;5983;49.966;8.052;2022-09-09T10:58:05;4.17;;;0.87;;
11847;SDS011;5983;49.966;8.052;2022-09-09T11:00:39;2.67;;;0.70;;
11847;SDS011;5983;49.966;8.052;2022-09-09T11:03:14;4.60;;;0.67;;
11847;SDS011;5983;49.966;8.052;2022-09-09T11:05:49;3.43;;;0.73;;
11847;SDS011;5983;49.966;8.052;2022-09-09T11:08:23;2.53;;;0.60;;
11847;SDS011;5983;49.966;8.052;2022-09-09T11:10:58;3.67;;;0.50;;
11847;SDS011;5983;49.966;8.052;2022-09-09T11:13:31;1.23;;;0.50;;
11847;SDS011;5983;49.966;8.052;2022-09-09T11:16:14;1.47;;;0.60;;
11847;SDS011;5983;49.966;8.052;2022-09-09T11:18:50;2.70;;;0.60;;
11847;SDS011;5983;49.966;8.052;2022-09-09T11:21:31;4.93;;;0.90;;
11847;SDS011;5983;49.966;8.052;2022-09-09T11:24:09;7.33;;;1.00;;
11847;SDS011;5983;49.966;8.052;2022-09-09T11:26:44;3.73;;;0.80;;
11847;SDS011;5983;49.966;8.052;2022-09-09T11:29:38;3.07;;;0.60;;
11847;SDS011;5983;49.966;8.052;2022-09-09T11:32:48;3.13;;;0.97;;
11847;SDS011;5983;49.966;8.052;2022-09-09T11:35:58;2.20;;;0.73;;
11847;SDS011;5983;49.966;8.052;2022-09-09T11:39:05;2.07;;;0.60;;
11847;SDS011;5983;49.966;8.052;2022-09-09T11:42:05;2.10;;;0.60;;
11847;SDS011;5983;49.966;8.052;2022-09-09T11:44:34;5.27;;;1.17;;
11847;SDS011;5983;49.966;8.052;2022-09-09T11:47:02;2.60;;;0.63;;
11847;SDS011;5983;49.966;8.052;2022-09-09T11:49:39;2.97;;;0.60;;
11847;SDS011;5983;49.966;8.052;2022-09-09T11:52:11;2.40;;;0.60;;
11847;SDS011;5983;49.966;8.052;2022-09-09T11:54:48;3.70;;;1.00;;
11847;SDS011;5983;49.966;8.052;2022-09-09T11:57:23;2.10;;;0.73;;
11847;SDS011;5983;49.966;8.052;2022-09-09T11:59:57;4.27;;;0.87;;
11847;SDS011;5983;49.966;8.052;2022-09-09T12:02:25;2.00;;;0.80;;
11847;SDS011;5983;49.966;8.052;2022-09-09T12:04:56;4.67;;;1.40;;
11847;SDS011;5983;49.966;8.052;2022-09-09T12:07:33;2.67;;;0.67;;
11847;SDS011;5983;49.966;8.052;2022-09-09T12:10:20;3.47;;;0.97;;
11847;SDS011;5983;49.966;8.052;2022-09-09T12:12:51;4.93;;;1.10;;
11847;SDS011;5983;49.966;8.052;2022-09-09T12:15:20;3.60;;;0.90;;
11847;SDS011;5983;49.966;8.052;2022-09-09T12:17:54;7.13;;;0.90;;
11847;SDS011;5983;49.966;8.052;2022-09-09T12:20:23;0.93;;;0.73;;
11847;SDS011;5983;49.966;8.052;2022-09-09T12:23:09;1.83;;;0.50;;
11847;SDS011;5983;49.966;8.052;2022-09-09T12:25:57;2.57;;;0.57;;
11847;SDS011;5983;49.966;8.052;2022-09-09T12:28:39;1.27;;;0.40;;
11847;SDS011;5983;49.966;8.052;2022-09-09T12:31:20;1.33;;;0.40;;
11847;SDS011;5983;49.966;8.052;2022-09-09T12:34:02;3.07;;;0.60;;
11847;SDS011;5983;49.966;8.052;2022-09-09T12:36:36;1.63;;;0.40;;
11847;SDS011;5983;49.966;8.052;2022-09-09T12:39:09;3.97;;;0.80;;
11847;SDS011;5983;49.966;8.052;2022-09-09T12:41:53;3.90;;;1.10;;
11847;SDS011;5983;49.966;8.052;2022-09-09T12:44:21;6.33;;;0.80;;
11847;SDS011;5983;49.966;8.052;2022-09-09T12:46:50;2.00;;;0.70;;
11847;SDS011;5983;49.966;8.052;2022-09-09T12:49:26;3.33;;;0.70;;
11847;SDS011;5983;49.966;8.052;2022-09-09T12:52:01;3.10;;;0.80;;
11847;SDS011;5983;49.966;8.052;2022-09-09T12:54:43;2.70;;;0.50;;
11847;SDS011;5983;49.966;8.052;2022-09-09T12:57:25;2.27;;;0.40;;
11847;SDS011;5983;49.966;8.052;2022-09-09T13:00:12;3.50;;;0.97;;
11847;SDS011;5983;49.966;8.052;2022-09-09T13:02:47;3.17;;;0.67;;
11847;SDS011;5983;49.966;8.052;2022-09-09T13:05:18;3.10;;;0.57;;
11847;SDS011;5983;49.966;8.052;2022-09-09T13:07:49;3.87;;;0.50;;
11847;SDS011;5983;49.966;8.052;2022-09-09T13:10:20;4.23;;;1.00;;
11847;SDS011;5983;49.966;8.052;2022-09-09T13:12:54;2.33;;;0.60;;
11847;SDS011;5983;49.966;8.052;2022-09-09T13:15:23;0.67;;;0.23;;
11847;SDS011;5983;49.966;8.052;2022-09-09T13:17:55;4.87;;;0.50;;
11847;SDS011;5983;49.966;8.052;2022-09-09T13:20:26;5.43;;;0.70;;
11847;SDS011;5983;49.966;8.052;2022-09-09T13:22:55;0.87;;;0.40;;
11847;SDS011;5983;49.966;8.052;2022-09-09T13:25:24;2.50;;;0.70;;
11847;SDS011;5983;49.966;8.052;2022-09-09T13:27:59;3.40;;;0.60;;
11847;SDS011;5983;49.966;8.052;2022-09-09T13:30:28;0.97;;;0.50;;
11847;SDS011;5983;49.966;8.052;2022-09-09T13:33:02;2.47;;;0.63;;
11847;SDS011;5983;49.966;8.052;2022-09-09T13:35:33;1.53;;;0.50;;
11847;SDS011;5983;49.966;8.052;2022-09-09T13:38:08;0.87;;;0.30;;
11847;SDS011;5983;49.966;8.052;2022-09-09T13:40:35;0.70;;;0.40;;
11847;SDS011;5983;49.966;8.052;2022-09-09T13:43:10;2.10;;;0.50;;
11847;SDS011;5983;49.966;8.052;2022-09-09T13:45:52;5.80;;;0.90;;
11847;SDS011;5983;49.966;8.052;2022-09-09T13:48:21;2.37;;;0.57;;
11847;SDS011;5983;49.966;8.052;2022-09-09T13:50:55;2.47;;;0.50;;
11847;SDS011;5983;49.966;8.052;2022-09-09T13:53:24;3.17;;;0.43;;
11847;SDS011;5983;49.966;8.052;2022-09-09T13:55:52;1.93;;;0.60;;
11847;SDS011;5983;49.966;8.052;2022-09-09T13:58:23;4.10;;;0.60;;
11847;SDS011;5983;49.966;8.052;2022-09-09T14:00:51;2.67;;;0.63;;
11847;SDS011;5983;49.966;8.052;2022-09-09T14:03:24;1.87;;;0.60;;
11847;SDS011;5983;49.966;8.052;2022-09-09T14:05:52;3.37;;;0.60;;
11847;SDS011;5983;49.966;8.052;2022-09-09T14:08:24;3.80;;;0.50;;
11847;SDS011;5983;49.966;8.052;2022-09-09T14:11:02;1.07;;;0.50;;
11847;SDS011;5983;49.966;8.052;2022-09-09T14:13:33;2.60;;;0.60;;
11847;SDS011;5983;49.966;8.052;2022-09-09T14:16:06;2.13;;;0.50;;
11847;SDS011;5983;49.966;8.052;2022-09-09T14:18:39;3.43;;;0.60;;
11847;SDS011;5983;49.966;8.052;2022-09-09T14:21:06;4.43;;;0.60;;
11847;SDS011;5983;49.966;8.052;2022-09-09T14:23:33;6.33;;;1.13;;
11847;SDS011;5983;49.966;8.052;2022-09-09T14:26:22;4.37;;;0.93;;
11847;SDS011;5983;49.966;8.052;2022-09-09T14:28:55;5.47;;;1.30;;
11847;SDS011;5983;49.966;8.052;2022-09-09T14:31:29;3.73;;;0.53;;
11847;SDS011;5983;49.966;8.052;2022-09-09T14:33:57;4.27;;;0.67;;
11847;SDS011;5983;49.966;8.052;2022-09-09T14:36:25;2.57;;;0.60;;
11847;SDS011;5983;49.966;8.052;2022-09-09T14:38:52;1.10;;;0.47;;
11847;SDS011;5983;49.966;8.052;2022-09-09T14:41:19;1.37;;;0.60;;
11847;SDS011;5983;49.966;8.052;2022-09-09T14:43:47;2.53;;;0.50;;
11847;SDS011;5983;49.966;8.052;2022-09-09T14:46:18;2.03;;;0.50;;
11847;SDS011;5983;49.966;8.052;2022-09-09T14:48:46;2.30;;;0.80;;
11847;SDS011;5983;49.966;8.052;2022-09-09T14:51:15;2.03;;;0.47;;
11847;SDS011;5983;49.966;8.052;2022-09-09T14:53:47;2.23;;;0.60;;
11847;SDS011;5983;49.966;8.052;2022-09-09T14:56:20;3.97;;;0.77;;
11847;SDS011;5983;49.966;8.052;2022-09-09T14:58:50;2.33;;;1.07;;
11847;SDS011;5983;49.966;8.052;2022-09-09T15:01:21;1.97;;;0.50;;
11847;SDS011;5983;49.966;8.052;2022-09-09T15:03:51;1.80;;;0.63;;
11847;SDS011;5983;49.966;8.052;2022-09-09T15:06:23;0.97;;;0.50;;
11847;SDS011;5983;49.966;8.052;2022-09-09T15:08:52;3.60;;;0.60;;
11847;SDS011;5983;49.966;8.052;2022-09-09T15:11:23;5.27;;;0.70;;
11847;SDS011;5983;49.966;8.052;2022-09-09T15:13:53;5.03;;;0.80;;
11847;SDS011;5983;49.966;8.052;2022-09-09T15:16:23;2.63;;;0.90;;
11847;SDS011;5983;49.966;8.052;2022-09-09T15:18:54;4.47;;;0.70;;
11847;SDS011;5983;49.966;8.052;2022-09-09T15:21:24;2.90;;;0.80;;
11847;SDS011;5983;49.966;8.052;2022-09-09T15:23:53;3.17;;;0.70;;
11847;SDS011;5983;49.966;8.052;2022-09-09T15:26:21;3.37;;;0.60;;
11847;SDS011;5983;49.966;8.052;2022-09-09T15:28:50;1.47;;;0.60;;
11847;SDS011;5983;49.966;8.052;2022-09-09T15:31:17;3.23;;;0.60;;
11847;SDS011;5983;49.966;8.052;2022-09-09T15:33:48;1.30;;;0.40;;
11847;SDS011;5983;49.966;8.052;2022-09-09T15:36:17;1.00;;;0.50;;
11847;SDS011;5983;49.966;8.052;2022-09-09T15:38:47;1.80;;;0.60;;
11847;SDS011;5983;49.966;8.052;2022-09-09T15:41:15;1.47;;;0.57;;